createdAt,value
2022-08-14T00:08:59.246Z,100996.50
2022-08-14T00:19:05.943Z,100984.38
2022-08-14T00:29:20.339Z,100972.41
2022-08-14T00:39:21.709Z,100958.91
2022-08-14T00:49:26.151Z,100949.00
2022-08-14T00:59:28.046Z,100933.72
2022-08-14T01:09:30.056Z,100930.72
2022-08-14T01:19:33.021Z,100917.81
2022-08-14T01:29:58.287Z,100910.50
2022-08-14T01:39:57.358Z,100912.34
2022-08-14T01:50:10.257Z,100919.25
2022-08-14T02:00:11.571Z,100907.50
2022-08-14T02:10:19.658Z,100900.59
2022-08-14T02:20:27.772Z,100894.44
2022-08-14T02:30:30.747Z,100888.59
2022-08-14T02:40:33.789Z,100890.84
2022-08-14T02:50:37.605Z,100883.38
2022-08-14T03:00:40.722Z,100893.03
2022-08-14T03:10:49.332Z,100867.66
2022-08-14T03:20:53.810Z,100869.88
2022-08-14T03:30:55.078Z,100864.66
2022-08-14T03:40:56.357Z,100849.41
2022-08-14T03:50:57.642Z,100846.34
2022-08-14T04:01:00.233Z,100856.59
2022-08-14T04:11:02.674Z,100853.41
2022-08-14T04:21:05.841Z,100847.44
2022-08-14T04:31:07.127Z,100841.09
2022-08-14T04:41:11.004Z,100815.34
2022-08-14T04:51:12.393Z,100819.81
2022-08-14T05:01:19.502Z,100810.84
2022-08-14T05:11:21.092Z,100800.75
2022-08-14T05:21:59.823Z,100806.25
2022-08-14T05:31:55.919Z,100799.38
2022-08-14T05:41:59.005Z,100802.41
2022-08-14T05:52:02.610Z,100790.09
2022-08-14T06:02:05.851Z,100803.00
2022-08-14T06:12:55.845Z,100800.81
2022-08-14T06:22:40.207Z,100798.22
2022-08-14T06:32:52.858Z,100783.09
2022-08-14T06:42:55.814Z,100792.81
2022-08-14T06:52:58.002Z,100780.50
2022-08-14T07:13:30.637Z,100764.06
2022-08-14T07:23:32.484Z,100749.50
2022-08-14T07:33:34.076Z,100752.50
2022-08-14T07:43:40.374Z,100754.75
2022-08-14T07:53:45.524Z,100751.59
2022-08-14T08:03:59.614Z,100754.38
2022-08-14T08:14:17.450Z,100758.16
2022-08-14T08:24:20.739Z,100732.19
2022-08-14T08:34:32.401Z,100722.09
2022-08-14T08:44:35.425Z,100741.69
2022-08-14T08:54:49.880Z,100734.78
2022-08-14T09:04:53.623Z,100724.88
2022-08-14T09:15:01.020Z,100715.16
2022-08-14T09:25:10.482Z,100701.00
2022-08-14T09:35:13.876Z,100699.31
2022-08-14T09:45:21.503Z,100684.00
2022-08-14T09:55:36.873Z,100666.06
2022-08-14T10:05:43.386Z,100663.25
2022-08-14T10:15:53.385Z,100649.44
2022-08-14T10:26:00.593Z,100635.63
2022-08-14T10:36:09.960Z,100627.41
2022-08-14T10:47:41.382Z,100600.88
2022-08-14T10:56:52.465Z,100609.28
2022-08-14T11:07:01.496Z,100598.63
2022-08-14T11:17:05.924Z,100593.41
2022-08-14T11:27:11.100Z,100588.19
2022-08-14T11:37:18.241Z,100593.78
2022-08-14T11:47:35.362Z,100560.88
2022-08-14T11:58:00.070Z,100548.19
2022-08-14T12:08:06.691Z,100537.75
2022-08-14T12:18:19.950Z,100521.66
2022-08-14T12:28:27.417Z,100518.31
2022-08-14T12:38:36.502Z,100508.94
2022-08-14T12:48:38.285Z,100481.09
2022-08-14T12:58:51.478Z,100471.94
2022-08-14T13:08:59.964Z,100468.19
2022-08-14T13:19:02.180Z,100464.81
2022-08-14T13:29:03.861Z,100454.16
2022-08-14T13:39:07.409Z,100449.72
2022-08-14T13:49:15.377Z,100423.47
2022-08-14T13:59:37.207Z,100427.03
2022-08-14T14:09:51.058Z,100406.47
2022-08-14T14:19:54.422Z,100405.31
2022-08-14T14:29:58.567Z,100403.84
2022-08-14T14:40:52.627Z,100392.25
2022-08-14T14:50:21.707Z,100387.00
2022-08-14T15:00:30.962Z,100386.03
2022-08-14T15:10:35.383Z,100363.59
2022-08-14T15:20:39.311Z,100341.91
2022-08-14T15:30:42.151Z,100353.31
2022-08-14T15:40:51.301Z,100349.94
2022-08-14T15:50:54.336Z,100344.31
2022-08-14T16:01:03.524Z,100349.53
2022-08-14T16:11:11.439Z,100330.09
2022-08-14T16:21:24.223Z,100320.34
2022-08-14T16:31:36.150Z,100310.28
2022-08-14T16:41:52.068Z,100306.53
2022-08-14T16:51:53.795Z,100298.88
2022-08-14T17:01:55.076Z,100290.06
2022-08-14T17:12:33.698Z,100278.84
2022-08-14T17:22:28.454Z,100280.72
2022-08-14T17:32:56.749Z,100268.03
2022-08-14T17:42:54.173Z,100261.66
2022-08-14T17:52:56.044Z,100267.28
2022-08-14T18:13:13.518Z,100262.81
2022-08-14T18:23:15.238Z,100266.19
2022-08-14T18:33:18.020Z,100266.00
2022-08-14T18:43:22.431Z,100273.31
2022-08-14T18:53:24.931Z,100254.97
2022-08-14T19:03:26.592Z,100266.19
2022-08-14T19:13:48.298Z,100265.28
2022-08-14T19:23:59.626Z,100269.56
2022-08-14T19:34:01.555Z,100263.22
2022-08-14T19:44:10.154Z,100269.38
2022-08-14T19:54:28.621Z,100256.88
2022-08-14T20:25:30.383Z,100262.13
2022-08-14T20:35:35.858Z,100260.81
2022-08-14T21:06:30.411Z,100238.53
2022-08-14T21:16:58.240Z,100237.06
2022-08-14T21:27:13.075Z,100229.97
2022-08-14T21:37:21.254Z,100227.31
2022-08-14T21:47:23.655Z,100227.31
2022-08-14T21:58:46.010Z,100217.63
2022-08-14T22:07:46.509Z,100213.88
2022-08-14T22:17:55.534Z,100206.03
2022-08-14T22:27:57.693Z,100200.78
2022-08-14T22:38:01.485Z,100186.41
2022-08-14T22:48:20.347Z,100187.00
2022-08-14T22:58:31.853Z,100172.22
2022-08-14T23:19:12.794Z,100164.97
2022-08-14T23:29:14.275Z,100165.53
2022-08-14T23:39:20.779Z,100194.31
2022-08-14T23:49:22.115Z,100154.91
2022-08-14T23:59:24.904Z,100173.78
